Madeline — WDF2406 — position and weather

sailwx.info

Track history (hours):
 
Tides and Currents Weather Stations Pressure Air Temp Water Temp Dewpoint Dewpoint Depression Visibility Wind Speed Wind Dir Waves Ship Positions

Madeline

Owner: Enterprise Marine Services, LLC, San Antonio, TX. More information available from US FCC via Universal Licensing System and Coast Guard Vessel Documentation Center.

Last reported at 2018-Jun-13 15:30 UTC. Time now 2018-Jun-18 17:07 UTC.
Position N 29°42' W 095°01'.

Length 24 m; draft 3.2 m.

Type: Ship (hazmat cat B). MMSI: 367350460.

Date/timePositionNaut miles runAvg speedWind from/ knotsBaromVisibWave heightAir tempDewpointWater temp
2018-Jun-13 15:30N 29°42' W 095°01'3 6.8
2018-Jun-13 15:00N 29°40' W 094°58'19 8.4
2018-Jun-13 12:45N 29°23' W 094°49'24 4.2
2018-Jun-13 07:09N 29°35' W 094°25'2 2.9
2018-Jun-13 06:32N 29°36' W 094°23'2 3.8
2018-Jun-13 06:06N 29°36' W 094°22'1 4.2
2018-Jun-13 05:53N 29°37' W 094°21'2 4.2
2018-Jun-13 05:30N 29°38' W 094°19'2 4.2
2018-Jun-13 05:00N 29°39' W 094°17'2 4.7
2018-Jun-13 04:30N 29°40' W 094°15'2 4.7
2018-Jun-13 04:00N 29°41' W 094°12'2 3.4
2018-Jun-13 03:30N 29°41' W 094°10'1 2.5
2018-Jun-13 03:00N 29°42' W 094°09'2 4.5
2018-Jun-13 02:30N 29°43' W 094°07'2 4.4
2018-Jun-13 02:00N 29°45' W 094°05'2 4.2
2018-Jun-13 01:30N 29°46' W 094°03'2 4.5
2018-Jun-13 01:00N 29°47' W 094°01'2 3.6
2018-Jun-13 00:30N 29°49' W 093°60'2 4.4
2018-Jun-13 00:00N 29°50' W 093°57'3 6.5
2018-Jun-12 23:30N 29°52' W 093°56'4 7.6
2018-Jun-12 23:00N 29°55' W 093°53'3 6.0
2018-Jun-12 22:30N 29°58' W 093°51'0 0.7
2018-Jun-12 21:59N 29°58' W 093°51'0 0.0
2018-Jun-12 21:30N 29°58' W 093°51'0 0.0
2018-Jun-12 21:00N 29°58' W 093°51'0 0.2
2018-Jun-12 20:30N 29°58' W 093°51'0 0.1
2018-Jun-12 19:59N 29°58' W 093°51'0 0.0
2018-Jun-12 19:30N 29°58' W 093°51'0 0.0
2018-Jun-12 19:00N 29°58' W 093°51'0 0.0
2018-Jun-12 18:28N 29°58' W 093°51'0 0.0
2018-Jun-12 18:00N 29°58' W 093°51'0 0.0
2018-Jun-12 17:30N 29°58' W 093°51'0 0.0
2018-Jun-12 16:59N 29°58' W 093°51'0 0.0
2018-Jun-12 16:30N 29°58' W 093°51'0 0.0
2018-Jun-12 16:00N 29°58' W 093°51'0 0.0
2018-Jun-12 15:30N 29°58' W 093°51'0 0.0
2018-Jun-12 15:00N 29°58' W 093°51'0 0.0
2018-Jun-12 14:30N 29°58' W 093°51'0 0.0
2018-Jun-12 14:00N 29°58' W 093°51'0 0.0
2018-Jun-12 13:29N 29°58' W 093°51'0 0.0
2018-Jun-12 13:00N 29°58' W 093°51'0 0.0
2018-Jun-12 12:30N 29°58' W 093°51'0 0.0
2018-Jun-12 12:00N 29°58' W 093°51'0 0.0
2018-Jun-12 11:30N 29°58' W 093°51'0 0.0
2018-Jun-12 11:00N 29°58' W 093°51'0 0.0
2018-Jun-12 10:30N 29°58' W 093°51'0 0.0
2018-Jun-12 10:00N 29°58' W 093°51'0 0.0
2018-Jun-12 09:29N 29°58' W 093°51'0 0.0
2018-Jun-12 09:00N 29°58' W 093°51'0 0.0
2018-Jun-12 08:30N 29°58' W 093°51'0 0.0
2018-Jun-12 08:00N 29°58' W 093°51'0 0.0
2018-Jun-12 07:30N 29°58' W 093°51'0 0.0
2018-Jun-12 07:00N 29°58' W 093°51'0 0.0
2018-Jun-12 06:30N 29°58' W 093°51'0 0.0
2018-Jun-12 06:00N 29°58' W 093°51'0 0.0
2018-Jun-12 05:30N 29°58' W 093°51'0 0.0
2018-Jun-12 05:00N 29°58' W 093°51'0 0.0
2018-Jun-12 04:30N 29°58' W 093°51'0 0.0
2018-Jun-12 04:00N 29°58' W 093°51'0 0.0
2018-Jun-12 03:29N 29°58' W 093°51'0 0.0
2018-Jun-12 03:00N 29°58' W 093°51'0 0.0
2018-Jun-12 02:29N 29°58' W 093°51'1 1.1
2018-Jun-12 02:00N 29°58' W 093°51'1 1.0
2018-Jun-12 01:30N 29°58' W 093°51'0 0.0
2018-Jun-12 00:57N 29°58' W 093°51'0 0.0
2018-Jun-12 00:30N 29°58' W 093°51'0 0.0
2018-Jun-12 00:00N 29°58' W 093°51'0 0.0
2018-Jun-11 23:30N 29°58' W 093°51'0 0.0
2018-Jun-11 23:00N 29°58' W 093°51'0 0.0
2018-Jun-11 22:30N 29°58' W 093°51'0 0.3
2018-Jun-11 22:00N 29°58' W 093°51'1 2.9
2018-Jun-11 21:30N 29°57' W 093°52'0 0.0
2018-Jun-11 21:00N 29°57' W 093°52'1 1.0
2018-Jun-11 20:30N 29°57' W 093°52'1 1.1
2018-Jun-11 19:59N 29°58' W 093°51'1 1.2
2018-Jun-11 19:30N 29°58' W 093°51'0 0.0
2018-Jun-11 19:00N 29°58' W 093°51'0 0.0
2018-Jun-11 18:30N 29°58' W 093°51'0 0.0
2018-Jun-11 18:00N 29°58' W 093°51'0 0.0
2018-Jun-11 17:30N 29°58' W 093°51'0 0.0
2018-Jun-11 17:00N 29°58' W 093°51'0 0.0
2018-Jun-11 16:30N 29°58' W 093°51'0 0.0
2018-Jun-11 16:00N 29°58' W 093°51'0 0.0
2018-Jun-11 15:30N 29°58' W 093°51'0 0.0
2018-Jun-11 15:00N 29°58' W 093°51'0 0.0
2018-Jun-11 14:30N 29°58' W 093°51'0 0.0
2018-Jun-11 14:00N 29°58' W 093°51'0 0.0
2018-Jun-11 13:30N 29°58' W 093°51'2 3.5
2018-Jun-11 13:00N 29°57' W 093°52'3 5.9
2018-Jun-11 12:30N 29°54' W 093°54'3 5.9
2018-Jun-11 12:00N 29°52' W 093°56'3 5.8
2018-Jun-11 11:30N 29°50' W 093°57'1 2.9
2018-Jun-11 11:00N 29°51' W 093°58'0 0.1
2018-Jun-11 10:30N 29°51' W 093°58'0 0.0
2018-Jun-11 10:00N 29°51' W 093°58'0 0.0
2018-Jun-11 09:30N 29°51' W 093°58'0 0.0
2018-Jun-11 08:59N 29°51' W 093°58'0 0.0
2018-Jun-11 08:30N 29°51' W 093°58'0 0.0
2018-Jun-11 08:00N 29°51' W 093°58'0 0.0
2018-Jun-11 07:30N 29°51' W 093°58'0 0.0
2018-Jun-11 07:00N 29°51' W 093°58'0 0.0
2018-Jun-11 06:30N 29°51' W 093°58'0 0.0
2018-Jun-11 06:00N 29°51' W 093°58'0 0.0
2018-Jun-11 05:30N 29°51' W 093°58'0 0.0
2018-Jun-11 05:00N 29°51' W 093°58'0 0.0
2018-Jun-11 04:30N 29°51' W 093°58'0 0.0
2018-Jun-11 04:00N 29°51' W 093°58'0 0.0
2018-Jun-11 03:30N 29°51' W 093°58'0 0.0
2018-Jun-11 03:00N 29°51' W 093°58'0 0.0
2018-Jun-11 02:30N 29°51' W 093°58'0 0.0
2018-Jun-11 02:00N 29°51' W 093°58'0 0.0
2018-Jun-11 01:30N 29°51' W 093°58'0 0.0
2018-Jun-11 01:00N 29°51' W 093°58'0 0.0
2018-Jun-11 00:30N 29°51' W 093°58'0 0.0
2018-Jun-11 00:00N 29°51' W 093°58'0 0.0
2018-Jun-10 23:30N 29°51' W 093°58'0 0.0
2018-Jun-10 23:00N 29°51' W 093°58'0 0.0
2018-Jun-10 22:30N 29°51' W 093°58'0 0.0
2018-Jun-10 22:00N 29°51' W 093°58'2 3.1
2018-Jun-10 21:30N 29°50' W 093°57'3 6.7
2018-Jun-10 21:00N 29°52' W 093°56'4 7.3
2018-Jun-10 20:29N 29°55' W 093°53'3 7.1
2018-Jun-10 20:00N 29°59' W 093°52'3 5.1
2018-Jun-10 19:30N 29°60' W 093°55'1 2.1
2018-Jun-10 19:00N 29°59' W 093°54'2 4.9
2018-Jun-10 18:30N 29°58' W 093°51'1 1.2
2018-Jun-10 18:00N 29°58' W 093°51'2 4.7
2018-Jun-10 17:30N 29°56' W 093°53'3 5.7
2018-Jun-10 17:00N 29°53' W 093°55'3 6.2
2018-Jun-10 16:30N 29°51' W 093°57'1 2.6
2018-Jun-10 16:00N 29°50' W 093°58'1 2.2
2018-Jun-10 15:30N 29°51' W 093°58'0 0.1
2018-Jun-10 15:00N 29°51' W 093°58'0 0.2
2018-Jun-10 14:30N 29°51' W 093°58'0 0.0
2018-Jun-10 13:30N 29°51' W 093°58'0 0.0
2018-Jun-10 13:00N 29°51' W 093°58'0 0.0
2018-Jun-10 12:30N 29°51' W 093°58'0 0.0
2018-Jun-10 12:00N 29°51' W 093°58'0 0.0
2018-Jun-10 11:30N 29°51' W 093°58'0 0.0
2018-Jun-10 11:00N 29°51' W 093°58'0 0.0
2018-Jun-10 10:30N 29°51' W 093°58'0 0.0
2018-Jun-10 10:00N 29°51' W 093°58'0 0.0
2018-Jun-10 09:30N 29°51' W 093°58'0 0.0
2018-Jun-10 09:00N 29°51' W 093°58'0 0.0
2018-Jun-10 08:30N 29°51' W 093°58'0 0.0
2018-Jun-10 08:00N 29°51' W 093°58'0 0.0
2018-Jun-10 07:30N 29°51' W 093°58'0 0.0
2018-Jun-10 07:00N 29°51' W 093°58'0 0.0
2018-Jun-10 06:30N 29°51' W 093°58'0 0.0
2018-Jun-10 06:00N 29°51' W 093°58'0 0.0
2018-Jun-10 05:30N 29°51' W 093°58'0 0.0
2018-Jun-10 05:00N 29°51' W 093°58'0 0.0
2018-Jun-10 04:30N 29°51' W 093°58'0 0.0
2018-Jun-10 04:00N 29°51' W 093°58'0 0.0
2018-Jun-10 03:30N 29°51' W 093°58'0 0.0
2018-Jun-10 03:00N 29°51' W 093°58'0 0.0
2018-Jun-10 02:30N 29°51' W 093°58'0 0.0
2018-Jun-10 02:00N 29°51' W 093°58'0 0.0
2018-Jun-10 01:30N 29°51' W 093°58'0 0.0
2018-Jun-10 01:00N 29°51' W 093°58'0 0.0
2018-Jun-10 00:30N 29°51' W 093°58'0 0.0
2018-Jun-10 00:00N 29°51' W 093°58'0 0.0
2018-Jun-09 23:30N 29°51' W 093°58'0 0.0
2018-Jun-09 23:00N 29°51' W 093°58'0 0.0
2018-Jun-09 22:30N 29°51' W 093°58'0 0.0
2018-Jun-09 22:00N 29°51' W 093°58'0 0.0
2018-Jun-09 21:30N 29°51' W 093°58'0 0.0
2018-Jun-09 21:00N 29°51' W 093°58'0 0.0
2018-Jun-09 20:30N 29°51' W 093°58'0 0.0
2018-Jun-09 20:00N 29°51' W 093°58'0 0.0
2018-Jun-09 19:30N 29°51' W 093°58'0 0.0
2018-Jun-09 19:00N 29°51' W 093°58'0 0.3
2018-Jun-09 18:30N 29°51' W 093°58'1 2.6
2018-Jun-09 18:00N 29°50' W 093°58'1 2.2
2018-Jun-09 17:30N 29°49' W 093°59'0 0.0
2018-Jun-09 17:00N 29°49' W 093°59'0 0.0
2018-Jun-09 16:30N 29°49' W 093°59'0 0.0
2018-Jun-09 16:00N 29°49' W 093°59'0 0.0
2018-Jun-09 15:30N 29°49' W 093°59'0 0.0
2018-Jun-09 14:30N 29°49' W 093°59'0 0.0
2018-Jun-09 14:00N 29°49' W 093°59'0 0.0
2018-Jun-09 13:30N 29°49' W 093°59'0 0.0
2018-Jun-09 13:00N 29°49' W 093°59'0 0.0
2018-Jun-09 12:30N 29°49' W 093°59'0 0.0
2018-Jun-09 12:00N 29°49' W 093°59'0 0.1
2018-Jun-09 11:30N 29°49' W 093°59'0 0.2
2018-Jun-09 11:00N 29°49' W 093°59'1 1.2
2018-Jun-09 10:30N 29°49' W 093°58'4 7.2
2018-Jun-09 10:00N 29°52' W 093°56'4 7.2
2018-Jun-09 09:30N 29°55' W 093°53'3 6.6
2018-Jun-09 09:00N 29°58' W 093°51'0 0.2
2018-Jun-09 08:30N 29°58' W 093°52'0 0.0
2018-Jun-09 07:59N 29°58' W 093°52'0 0.0
2018-Jun-09 07:30N 29°58' W 093°52'0 0.0
2018-Jun-09 07:00N 29°58' W 093°52'0 0.0
2018-Jun-09 06:28N 29°58' W 093°52'0 0.0
2018-Jun-09 05:59N 29°58' W 093°52'0 0.0
2018-Jun-09 05:30N 29°58' W 093°52'0 0.0
2018-Jun-09 05:00N 29°58' W 093°52'0 0.1
2018-Jun-09 04:30N 29°58' W 093°52'0 0.0
2018-Jun-09 04:00N 29°58' W 093°52'0 0.0
2018-Jun-09 03:30N 29°58' W 093°52'0 0.0
2018-Jun-09 03:00N 29°58' W 093°52'0 0.0
2018-Jun-09 02:30N 29°58' W 093°52'0 0.0
2018-Jun-09 02:00N 29°58' W 093°52'0 0.0
2018-Jun-09 01:30N 29°58' W 093°52'0 0.0
2018-Jun-09 01:00N 29°58' W 093°52'1 2.8
2018-Jun-09 00:30N 29°59' W 093°53'3 6.9
2018-Jun-09 00:00N 29°60' W 093°57'2 3.4
2018-Jun-08 23:30N 30°01' W 093°59'0 0.1
2018-Jun-08 23:00N 30°00' W 093°59'0 0.0
2018-Jun-08 22:30N 30°00' W 093°59'0 0.0
2018-Jun-08 22:00N 30°00' W 093°59'0 0.0
2018-Jun-08 21:30N 30°00' W 093°59'0 0.0
2018-Jun-08 21:00N 30°00' W 093°59'0 0.0
2018-Jun-08 20:30N 30°00' W 093°59'0 0.0
2018-Jun-08 20:00N 30°00' W 093°59'0 0.0
2018-Jun-08 19:30N 30°00' W 093°59'0 0.0
2018-Jun-08 19:00N 30°00' W 093°59'0 0.0
2018-Jun-08 18:30N 30°00' W 093°59'0 0.0
2018-Jun-08 18:00N 30°00' W 093°59'0 0.0
2018-Jun-08 17:30N 30°00' W 093°59'0 0.0
2018-Jun-08 17:00N 30°00' W 093°59'0 0.0
2018-Jun-08 16:30N 30°00' W 093°59'0 0.0
2018-Jun-08 16:00N 30°00' W 093°59'0 0.0
2018-Jun-08 15:29N 30°00' W 093°59'0 0.0
2018-Jun-08 15:00N 30°00' W 093°59'0 0.0
2018-Jun-08 14:29N 30°00' W 093°59'0 0.0
2018-Jun-08 14:00N 30°00' W 093°59'0 0.0
2018-Jun-08 13:30N 30°00' W 093°59'0 0.0
2018-Jun-08 13:00N 30°00' W 093°59'0 0.0
2018-Jun-08 12:30N 30°00' W 093°59'0 0.0
2018-Jun-08 12:00N 30°00' W 093°59'0 0.0
2018-Jun-08 11:30N 30°00' W 093°59'0 0.0
2018-Jun-08 11:00N 30°00' W 093°59'0 0.0
2018-Jun-08 10:30N 30°00' W 093°59'0 0.0
2018-Jun-08 10:00N 30°00' W 093°59'0 0.0
2018-Jun-08 09:30N 30°00' W 093°59'0 0.0
2018-Jun-08 09:00N 30°00' W 093°59'0 0.0
2018-Jun-08 08:30N 30°00' W 093°59'0 0.0
2018-Jun-08 08:00N 30°00' W 093°59'0 0.0
2018-Jun-08 07:30N 30°00' W 093°59'0 0.0
2018-Jun-08 07:00N 30°00' W 093°59'0 0.0
2018-Jun-08 06:30N 30°00' W 093°59'0 0.0
2018-Jun-08 06:00N 30°00' W 093°59'0 0.0
2018-Jun-08 05:30N 30°00' W 093°59'0 0.0
2018-Jun-08 05:00N 30°00' W 093°59'0 0.0
2018-Jun-08 04:30N 30°00' W 093°59'0 0.0
2018-Jun-08 04:00N 30°00' W 093°59'0 0.0
2018-Jun-08 03:30N 30°00' W 093°59'0 0.1
2018-Jun-08 03:00N 30°01' W 093°59'0 0.0
2018-Jun-08 02:30N 30°01' W 093°59'0 0.0
2018-Jun-08 02:00N 30°01' W 093°59'0 0.0
2018-Jun-08 01:30N 30°01' W 093°59'0 0.0
2018-Jun-08 01:00N 30°01' W 093°59'0 0.0
2018-Jun-08 00:30N 30°01' W 093°59'0 0.0
2018-Jun-08 00:00N 30°01' W 093°59'0 0.0
2018-Jun-07 23:30N 30°01' W 093°59'0 0.0
2018-Jun-07 23:00N 30°01' W 093°59'0 0.0
2018-Jun-07 22:30N 30°01' W 093°59'0 0.0
2018-Jun-07 22:00N 30°01' W 093°59'0 0.0
2018-Jun-07 21:30N 30°01' W 093°59'0 0.0
2018-Jun-07 21:00N 30°01' W 093°59'0 0.0
2018-Jun-07 20:30N 30°01' W 093°59'0 0.0
2018-Jun-07 20:00N 30°01' W 093°59'0 0.9
2018-Jun-07 19:30N 30°01' W 093°58'3 5.9
2018-Jun-07 18:59N 29°59' W 093°55'3 6.5
2018-Jun-07 18:30N 29°59' W 093°52'1 1.2
2018-Jun-07 18:00N 29°58' W 093°51'0 0.0
2018-Jun-07 17:30N 29°58' W 093°51'0 0.0
2018-Jun-07 17:00N 29°58' W 093°51'0 0.0
2018-Jun-07 16:30N 29°58' W 093°51'0 0.0
2018-Jun-07 16:00N 29°58' W 093°51'0 0.0
2018-Jun-07 15:29N 29°58' W 093°51'0 0.0
2018-Jun-07 15:00N 29°58' W 093°51'0 0.0
2018-Jun-07 14:30N 29°58' W 093°51'0 0.0
2018-Jun-07 14:00N 29°58' W 093°51'0 0.0
2018-Jun-07 13:30N 29°58' W 093°51'0 0.0
2018-Jun-07 13:00N 29°58' W 093°51'0 0.0
2018-Jun-07 12:30N 29°58' W 093°51'0 0.0
2018-Jun-07 12:00N 29°58' W 093°51'0 0.0
2018-Jun-07 11:30N 29°58' W 093°51'0 0.0
2018-Jun-07 11:00N 29°58' W 093°51'0 0.0
2018-Jun-07 10:30N 29°58' W 093°51'0 0.0
2018-Jun-07 10:00N 29°58' W 093°51'0 0.0
2018-Jun-07 09:30N 29°58' W 093°51'0 0.0
2018-Jun-07 09:00N 29°58' W 093°51'0 0.0
2018-Jun-07 08:30N 29°58' W 093°51'0 0.0
2018-Jun-07 08:00N 29°58' W 093°51'0 0.0
2018-Jun-07 07:30N 29°58' W 093°51'0 0.0
2018-Jun-07 07:00N 29°58' W 093°51'0 0.0
2018-Jun-07 06:30N 29°58' W 093°51'0 0.0
2018-Jun-07 06:00N 29°58' W 093°51'0 0.0
2018-Jun-07 05:30N 29°58' W 093°51'0 0.0
2018-Jun-07 05:00N 29°58' W 093°51'0 0.0
2018-Jun-07 04:30N 29°58' W 093°51'0 0.0
2018-Jun-07 04:00N 29°58' W 093°51'0 0.0
2018-Jun-07 03:30N 29°58' W 093°51'0 0.0
2018-Jun-07 03:00N 29°58' W 093°51'0 0.0
2018-Jun-07 02:30N 29°58' W 093°51'0 0.0
2018-Jun-07 02:00N 29°58' W 093°51'0 0.0
2018-Jun-07 01:30N 29°58' W 093°51'0 0.0
2018-Jun-07 01:00N 29°58' W 093°51'0 0.0
2018-Jun-07 00:30N 29°58' W 093°51'0 0.0
2018-Jun-07 00:00N 29°58' W 093°51'0 0.0
2018-Jun-06 23:30N 29°58' W 093°51'0 0.0
2018-Jun-06 23:00N 29°58' W 093°51'1 1.1
2018-Jun-06 22:30N 29°58' W 093°52'0 0.0
2018-Jun-06 21:59N 29°58' W 093°52'0 0.0
2018-Jun-06 21:30N 29°58' W 093°52'0 0.0
2018-Jun-06 21:00N 29°58' W 093°52'0 0.0
2018-Jun-06 20:30N 29°58' W 093°52'0 0.0
2018-Jun-06 20:00N 29°58' W 093°52'0 0.0
2018-Jun-06 19:30N 29°58' W 093°52'3 5.1
2018-Jun-06 19:00N 29°59' W 093°54'1 1.1
2018-Jun-06 18:30N 29°60' W 093°55'0 0.0
2018-Jun-06 18:00N 29°60' W 093°55'0 0.0
2018-Jun-06 17:30N 29°60' W 093°55'0 0.0
2018-Jun-06 17:00N 29°60' W 093°55'0 0.0
2018-Jun-06 16:29N 29°60' W 093°55'0 0.0
2018-Jun-06 16:00N 29°60' W 093°55'0 0.0
2018-Jun-06 15:30N 29°60' W 093°55'0 0.0
2018-Jun-06 15:00N 29°60' W 093°55'0 0.0
2018-Jun-06 14:30N 29°60' W 093°55'0 0.0
2018-Jun-06 14:00N 29°60' W 093°55'0 0.0
2018-Jun-06 13:30N 29°60' W 093°55'0 0.0
2018-Jun-06 13:00N 29°60' W 093°55'0 0.0
2018-Jun-06 12:30N 29°60' W 093°55'0 0.0
2018-Jun-06 12:00N 29°60' W 093°55'0 0.1
2018-Jun-06 11:30N 29°60' W 093°55'0 0.1
2018-Jun-06 11:00N 29°60' W 093°55'0 0.0
2018-Jun-06 10:30N 29°60' W 093°55'0 0.0
2018-Jun-06 10:00N 29°60' W 093°55'0 0.0
2018-Jun-06 09:30N 29°60' W 093°55'0 0.0
2018-Jun-06 09:00N 29°60' W 093°55'0 0.0
2018-Jun-06 08:30N 29°60' W 093°55'0 0.0
2018-Jun-06 08:00N 29°60' W 093°55'0 0.0
2018-Jun-06 07:30N 29°60' W 093°55'0 0.0
2018-Jun-06 07:00N 29°60' W 093°55'0 0.0
2018-Jun-06 06:30N 29°60' W 093°55'0 0.0
2018-Jun-06 06:00N 29°60' W 093°55'0 0.0
2018-Jun-06 05:30N 29°60' W 093°55'0 0.0
2018-Jun-06 05:00N 29°60' W 093°55'0 0.0
2018-Jun-06 04:30N 29°60' W 093°55'0 0.0
2018-Jun-06 04:00N 29°60' W 093°55'0 0.0
2018-Jun-06 03:30N 29°60' W 093°55'0 0.0
2018-Jun-06 03:00N 29°60' W 093°55'0 0.0
2018-Jun-06 02:30N 29°60' W 093°55'0 0.0
2018-Jun-06 02:00N 29°60' W 093°55'0 0.0
2018-Jun-06 01:30N 29°60' W 093°55'0 0.0
2018-Jun-06 01:00N 29°60' W 093°55'0 0.0
2018-Jun-06 00:30N 29°60' W 093°55'1 2.5
2018-Jun-06 00:00N 29°59' W 093°53'3 5.5
2018-Jun-05 23:30N 29°57' W 093°52'4 7.7
2018-Jun-05 23:00N 29°53' W 093°55'4 7.6
2018-Jun-05 22:30N 29°50' W 093°57'1 2.2
2018-Jun-05 22:00N 29°51' W 093°58'0 0.0
2018-Jun-05 21:30N 29°51' W 093°58'0 0.0
2018-Jun-05 21:00N 29°51' W 093°58'0 0.0
2018-Jun-05 20:30N 29°51' W 093°58'0 0.0
2018-Jun-05 20:00N 29°51' W 093°58'0 0.0
2018-Jun-05 19:30N 29°51' W 093°58'0 0.0
2018-Jun-05 19:00N 29°51' W 093°58'0 0.0
2018-Jun-05 18:30N 29°51' W 093°58'0 0.0
2018-Jun-05 18:00N 29°51' W 093°58'0 0.0
2018-Jun-05 17:29N 29°51' W 093°58'0 0.0
2018-Jun-05 17:00N 29°51' W 093°58'0 0.0
2018-Jun-05 16:29N 29°51' W 093°58'0 0.0
2018-Jun-05 16:00N 29°51' W 093°58'0 0.0
2018-Jun-05 15:30N 29°51' W 093°58'0 0.0
2018-Jun-05 15:00N 29°51' W 093°58'0 0.0
2018-Jun-05 14:30N 29°51' W 093°58'0 0.0
2018-Jun-05 14:00N 29°51' W 093°58'0 0.0
2018-Jun-05 13:30N 29°51' W 093°58'0 0.0
2018-Jun-05 13:00N 29°51' W 093°58'0 0.0
2018-Jun-05 12:30N 29°51' W 093°58'0 0.0
2018-Jun-05 11:58N 29°51' W 093°58'0 0.0
2018-Jun-05 11:30N 29°51' W 093°58'0 0.0
2018-Jun-05 11:00N 29°51' W 093°58'0 0.0
2018-Jun-05 10:30N 29°51' W 093°58'0 0.0
2018-Jun-05 10:00N 29°51' W 093°58'0 0.0
2018-Jun-05 09:30N 29°51' W 093°58'0 0.0
2018-Jun-05 09:00N 29°51' W 093°58'0 0.5
2018-Jun-05 08:30N 29°51' W 093°58'1 3.0
2018-Jun-05 08:00N 29°49' W 093°58'0 0.2
2018-Jun-05 07:30N 29°49' W 093°58'0 0.0
2018-Jun-05 07:00N 29°49' W 093°58'0 0.0
2018-Jun-05 06:30N 29°49' W 093°58'0 0.0
2018-Jun-05 06:00N 29°49' W 093°58'0 0.0
2018-Jun-05 05:28N 29°49' W 093°58'0 0.0
2018-Jun-05 05:00N 29°49' W 093°58'0 0.0
2018-Jun-05 04:30N 29°49' W 093°58'0 0.0
2018-Jun-05 03:59N 29°49' W 093°58'0 0.0
2018-Jun-05 03:30N 29°49' W 093°58'0 0.0
2018-Jun-05 02:59N 29°49' W 093°58'0 0.0
2018-Jun-05 02:30N 29°49' W 093°58'1 1.0
2018-Jun-05 02:00N 29°49' W 093°58'1 2.3
2018-Jun-05 01:30N 29°51' W 093°58'0 0.2
2018-Jun-05 01:00N 29°51' W 093°58'0 0.7
2018-Jun-05 00:30N 29°51' W 093°58'0 0.0
2018-Jun-05 00:01N 29°51' W 093°58'0 0.0
2018-Jun-04 23:30N 29°51' W 093°58'0 0.0
2018-Jun-04 23:00N 29°51' W 093°58'0 0.0
2018-Jun-04 22:30N 29°51' W 093°58'0 0.0
2018-Jun-04 22:00N 29°51' W 093°58'0 0.0
2018-Jun-04 21:30N 29°51' W 093°58'0 0.0
2018-Jun-04 21:00N 29°51' W 093°58'0 0.0
2018-Jun-04 20:30N 29°51' W 093°58'0 0.0
2018-Jun-04 20:00N 29°51' W 093°58'0 0.0
2018-Jun-04 19:30N 29°51' W 093°58'0 0.0
2018-Jun-04 19:00N 29°51' W 093°58'0 0.1
2018-Jun-04 18:30N 29°51' W 093°58'0 0.0
2018-Jun-04 18:00N 29°51' W 093°58'0 0.0
2018-Jun-04 17:30N 29°51' W 093°58'0 0.0
2018-Jun-04 17:00N 29°51' W 093°58'0 0.0
2018-Jun-04 16:30N 29°51' W 093°58'0 0.0
2018-Jun-04 16:00N 29°51' W 093°58'0 0.0
2018-Jun-04 15:30N 29°51' W 093°58'0 0.0
2018-Jun-04 15:00N 29°51' W 093°58'0 0.0
2018-Jun-04 14:30N 29°51' W 093°58'0 0.0
2018-Jun-04 14:00N 29°51' W 093°58'0 0.0
2018-Jun-04 13:30N 29°51' W 093°58'0 0.0
2018-Jun-04 13:00N 29°51' W 093°58'0 0.0
2018-Jun-04 12:30N 29°51' W 093°58'0 0.0
2018-Jun-04 12:00N 29°51' W 093°58'0 0.0
2018-Jun-04 11:30N 29°51' W 093°58'0 0.0
2018-Jun-04 11:00N 29°51' W 093°58'0 0.0
2018-Jun-04 10:29N 29°51' W 093°58'0 0.0
2018-Jun-04 10:00N 29°51' W 093°58'0 0.0
2018-Jun-04 09:30N 29°51' W 093°58'0 0.0
2018-Jun-04 09:00N 29°51' W 093°58'0 0.0
2018-Jun-04 08:30N 29°51' W 093°58'0 0.0
2018-Jun-04 08:00N 29°51' W 093°58'0 0.0
2018-Jun-04 07:30N 29°51' W 093°58'0 0.0
2018-Jun-04 07:00N 29°51' W 093°58'0 0.0
2018-Jun-04 06:30N 29°51' W 093°58'0 0.0
2018-Jun-04 06:00N 29°51' W 093°58'0 0.0
2018-Jun-04 05:30N 29°51' W 093°58'0 0.0
2018-Jun-04 05:00N 29°51' W 093°58'0 0.0
2018-Jun-04 04:30N 29°51' W 093°58'0 0.0
2018-Jun-04 03:59N 29°51' W 093°58'0 0.0
2018-Jun-04 03:30N 29°51' W 093°58'0 0.0
2018-Jun-04 03:00N 29°51' W 093°58'0 0.0
2018-Jun-04 02:30N 29°51' W 093°58'0 0.0
2018-Jun-04 02:00N 29°51' W 093°58'1 2.6
2018-Jun-04 01:30N 29°50' W 093°58'1 2.4
2018-Jun-04 01:00N 29°49' W 093°59'3 5.1
2018-Jun-04 00:30N 29°47' W 094°01'3 5.9
2018-Jun-04 00:00N 29°46' W 094°04'3 6.1
2018-Jun-03 23:30N 29°44' W 094°06'3 6.0
2018-Jun-03 23:00N 29°42' W 094°09'3 5.6
2018-Jun-03 22:30N 29°41' W 094°12'11 5.2
2018-Jun-03 20:18N 29°36' W 094°24'1 3.8
2018-Jun-03 20:00N 29°35' W 094°25'20 5.6
2018-Jun-03 16:24N 29°24' W 094°45'2 6.1
2018-Jun-03 16:00N 29°23' W 094°47'  
Track history (hours):
 
Tides and Currents Weather Stations Pressure Air Temp Water Temp Dewpoint Dewpoint Depression Visibility Wind Speed Wind Dir Waves Ship Positions

Madeline

Owner: Enterprise Marine Services, LLC, San Antonio, TX. More information available from US FCC via Universal Licensing System and Coast Guard Vessel Documentation Center.

Last reported at 2018-Jun-13 15:30 UTC. Time now 2018-Jun-18 17:07 UTC.
Position N 29°42' W 095°01'.

Length 24 m; draft 3.2 m.

Type: Ship (hazmat cat B). MMSI: 367350460.

Date/timePositionNaut miles runAvg speedWind from/ knotsBaromVisibWave heightAir tempDewpointWater temp
2018-Jun-13 15:30N 29°42' W 095°01'3 6.8
2018-Jun-13 15:00N 29°40' W 094°58'19 8.4
2018-Jun-13 12:45N 29°23' W 094°49'24 4.2
2018-Jun-13 07:09N 29°35' W 094°25'2 2.9
2018-Jun-13 06:32N 29°36' W 094°23'2 3.8
2018-Jun-13 06:06N 29°36' W 094°22'1 4.2
2018-Jun-13 05:53N 29°37' W 094°21'2 4.2
2018-Jun-13 05:30N 29°38' W 094°19'2 4.2
2018-Jun-13 05:00N 29°39' W 094°17'2 4.7
2018-Jun-13 04:30N 29°40' W 094°15'2 4.7
2018-Jun-13 04:00N 29°41' W 094°12'2 3.4
2018-Jun-13 03:30N 29°41' W 094°10'1 2.5
2018-Jun-13 03:00N 29°42' W 094°09'2 4.5
2018-Jun-13 02:30N 29°43' W 094°07'2 4.4
2018-Jun-13 02:00N 29°45' W 094°05'2 4.2
2018-Jun-13 01:30N 29°46' W 094°03'2 4.5
2018-Jun-13 01:00N 29°47' W 094°01'2 3.6
2018-Jun-13 00:30N 29°49' W 093°60'2 4.4
2018-Jun-13 00:00N 29°50' W 093°57'3 6.5
2018-Jun-12 23:30N 29°52' W 093°56'4 7.6
2018-Jun-12 23:00N 29°55' W 093°53'3 6.0
2018-Jun-12 22:30N 29°58' W 093°51'0 0.7
2018-Jun-12 21:59N 29°58' W 093°51'0 0.0
2018-Jun-12 21:30N 29°58' W 093°51'0 0.0
2018-Jun-12 21:00N 29°58' W 093°51'0 0.2
2018-Jun-12 20:30N 29°58' W 093°51'0 0.1
2018-Jun-12 19:59N 29°58' W 093°51'0 0.0
2018-Jun-12 19:30N 29°58' W 093°51'0 0.0
2018-Jun-12 19:00N 29°58' W 093°51'0 0.0
2018-Jun-12 18:28N 29°58' W 093°51'0 0.0
2018-Jun-12 18:00N 29°58' W 093°51'0 0.0
2018-Jun-12 17:30N 29°58' W 093°51'0 0.0
2018-Jun-12 16:59N 29°58' W 093°51'0 0.0
2018-Jun-12 16:30N 29°58' W 093°51'0 0.0
2018-Jun-12 16:00N 29°58' W 093°51'0 0.0
2018-Jun-12 15:30N 29°58' W 093°51'0 0.0
2018-Jun-12 15:00N 29°58' W 093°51'0 0.0
2018-Jun-12 14:30N 29°58' W 093°51'0 0.0
2018-Jun-12 14:00N 29°58' W 093°51'0 0.0
2018-Jun-12 13:29N 29°58' W 093°51'0 0.0
2018-Jun-12 13:00N 29°58' W 093°51'0 0.0
2018-Jun-12 12:30N 29°58' W 093°51'0 0.0
2018-Jun-12 12:00N 29°58' W 093°51'0 0.0
2018-Jun-12 11:30N 29°58' W 093°51'0 0.0
2018-Jun-12 11:00N 29°58' W 093°51'0 0.0
2018-Jun-12 10:30N 29°58' W 093°51'0 0.0
2018-Jun-12 10:00N 29°58' W 093°51'0 0.0
2018-Jun-12 09:29N 29°58' W 093°51'0 0.0
2018-Jun-12 09:00N 29°58' W 093°51'0 0.0
2018-Jun-12 08:30N 29°58' W 093°51'0 0.0
2018-Jun-12 08:00N 29°58' W 093°51'0 0.0
2018-Jun-12 07:30N 29°58' W 093°51'0 0.0
2018-Jun-12 07:00N 29°58' W 093°51'0 0.0
2018-Jun-12 06:30N 29°58' W 093°51'0 0.0
2018-Jun-12 06:00N 29°58' W 093°51'0 0.0
2018-Jun-12 05:30N 29°58' W 093°51'0 0.0
2018-Jun-12 05:00N 29°58' W 093°51'0 0.0
2018-Jun-12 04:30N 29°58' W 093°51'0 0.0
2018-Jun-12 04:00N 29°58' W 093°51'0 0.0
2018-Jun-12 03:29N 29°58' W 093°51'0 0.0
2018-Jun-12 03:00N 29°58' W 093°51'0 0.0
2018-Jun-12 02:29N 29°58' W 093°51'1 1.1
2018-Jun-12 02:00N 29°58' W 093°51'1 1.0
2018-Jun-12 01:30N 29°58' W 093°51'0 0.0
2018-Jun-12 00:57N 29°58' W 093°51'0 0.0
2018-Jun-12 00:30N 29°58' W 093°51'0 0.0
2018-Jun-12 00:00N 29°58' W 093°51'0 0.0
2018-Jun-11 23:30N 29°58' W 093°51'0 0.0
2018-Jun-11 23:00N 29°58' W 093°51'0 0.0
2018-Jun-11 22:30N 29°58' W 093°51'0 0.3
2018-Jun-11 22:00N 29°58' W 093°51'1 2.9
2018-Jun-11 21:30N 29°57' W 093°52'0 0.0
2018-Jun-11 21:00N 29°57' W 093°52'1 1.0
2018-Jun-11 20:30N 29°57' W 093°52'1 1.1
2018-Jun-11 19:59N 29°58' W 093°51'1 1.2
2018-Jun-11 19:30N 29°58' W 093°51'0 0.0
2018-Jun-11 19:00N 29°58' W 093°51'0 0.0
2018-Jun-11 18:30N 29°58' W 093°51'0 0.0
2018-Jun-11 18:00N 29°58' W 093°51'0 0.0
2018-Jun-11 17:30N 29°58' W 093°51'0 0.0
2018-Jun-11 17:00N 29°58' W 093°51'0 0.0
2018-Jun-11 16:30N 29°58' W 093°51'0 0.0
2018-Jun-11 16:00N 29°58' W 093°51'0 0.0
2018-Jun-11 15:30N 29°58' W 093°51'0 0.0
2018-Jun-11 15:00N 29°58' W 093°51'0 0.0
2018-Jun-11 14:30N 29°58' W 093°51'0 0.0
2018-Jun-11 14:00N 29°58' W 093°51'0 0.0
2018-Jun-11 13:30N 29°58' W 093°51'2 3.5
2018-Jun-11 13:00N 29°57' W 093°52'3 5.9
2018-Jun-11 12:30N 29°54' W 093°54'3 5.9
2018-Jun-11 12:00N 29°52' W 093°56'3 5.8
2018-Jun-11 11:30N 29°50' W 093°57'1 2.9
2018-Jun-11 11:00N 29°51' W 093°58'0 0.1
2018-Jun-11 10:30N 29°51' W 093°58'0 0.0
2018-Jun-11 10:00N 29°51' W 093°58'0 0.0
2018-Jun-11 09:30N 29°51' W 093°58'0 0.0
2018-Jun-11 08:59N 29°51' W 093°58'0 0.0
2018-Jun-11 08:30N 29°51' W 093°58'0 0.0
2018-Jun-11 08:00N 29°51' W 093°58'0 0.0
2018-Jun-11 07:30N 29°51' W 093°58'0 0.0
2018-Jun-11 07:00N 29°51' W 093°58'0 0.0
2018-Jun-11 06:30N 29°51' W 093°58'0 0.0
2018-Jun-11 06:00N 29°51' W 093°58'0 0.0
2018-Jun-11 05:30N 29°51' W 093°58'0 0.0
2018-Jun-11 05:00N 29°51' W 093°58'0 0.0
2018-Jun-11 04:30N 29°51' W 093°58'0 0.0
2018-Jun-11 04:00N 29°51' W 093°58'0 0.0
2018-Jun-11 03:30N 29°51' W 093°58'0 0.0
2018-Jun-11 03:00N 29°51' W 093°58'0 0.0
2018-Jun-11 02:30N 29°51' W 093°58'0 0.0
2018-Jun-11 02:00N 29°51' W 093°58'0 0.0
2018-Jun-11 01:30N 29°51' W 093°58'0 0.0
2018-Jun-11 01:00N 29°51' W 093°58'0 0.0
2018-Jun-11 00:30N 29°51' W 093°58'0 0.0
2018-Jun-11 00:00N 29°51' W 093°58'0 0.0
2018-Jun-10 23:30N 29°51' W 093°58'0 0.0
2018-Jun-10 23:00N 29°51' W 093°58'0 0.0
2018-Jun-10 22:30N 29°51' W 093°58'0 0.0
2018-Jun-10 22:00N 29°51' W 093°58'2 3.1
2018-Jun-10 21:30N 29°50' W 093°57'3 6.7
2018-Jun-10 21:00N 29°52' W 093°56'4 7.3
2018-Jun-10 20:29N 29°55' W 093°53'3 7.1
2018-Jun-10 20:00N 29°59' W 093°52'3 5.1
2018-Jun-10 19:30N 29°60' W 093°55'1 2.1
2018-Jun-10 19:00N 29°59' W 093°54'2 4.9
2018-Jun-10 18:30N 29°58' W 093°51'1 1.2
2018-Jun-10 18:00N 29°58' W 093°51'2 4.7
2018-Jun-10 17:30N 29°56' W 093°53'3 5.7
2018-Jun-10 17:00N 29°53' W 093°55'3 6.2
2018-Jun-10 16:30N 29°51' W 093°57'1 2.6
2018-Jun-10 16:00N 29°50' W 093°58'1 2.2
2018-Jun-10 15:30N 29°51' W 093°58'0 0.1
2018-Jun-10 15:00N 29°51' W 093°58'0 0.2
2018-Jun-10 14:30N 29°51' W 093°58'0 0.0
2018-Jun-10 13:30N 29°51' W 093°58'0 0.0
2018-Jun-10 13:00N 29°51' W 093°58'0 0.0
2018-Jun-10 12:30N 29°51' W 093°58'0 0.0
2018-Jun-10 12:00N 29°51' W 093°58'0 0.0
2018-Jun-10 11:30N 29°51' W 093°58'0 0.0
2018-Jun-10 11:00N 29°51' W 093°58'0 0.0
2018-Jun-10 10:30N 29°51' W 093°58'0 0.0
2018-Jun-10 10:00N 29°51' W 093°58'0 0.0
2018-Jun-10 09:30N 29°51' W 093°58'0 0.0
2018-Jun-10 09:00N 29°51' W 093°58'0 0.0
2018-Jun-10 08:30N 29°51' W 093°58'0 0.0
2018-Jun-10 08:00N 29°51' W 093°58'0 0.0
2018-Jun-10 07:30N 29°51' W 093°58'0 0.0
2018-Jun-10 07:00N 29°51' W 093°58'0 0.0
2018-Jun-10 06:30N 29°51' W 093°58'0 0.0
2018-Jun-10 06:00N 29°51' W 093°58'0 0.0
2018-Jun-10 05:30N 29°51' W 093°58'0 0.0
2018-Jun-10 05:00N 29°51' W 093°58'0 0.0
2018-Jun-10 04:30N 29°51' W 093°58'0 0.0
2018-Jun-10 04:00N 29°51' W 093°58'0 0.0
2018-Jun-10 03:30N 29°51' W 093°58'0 0.0
2018-Jun-10 03:00N 29°51' W 093°58'0 0.0
2018-Jun-10 02:30N 29°51' W 093°58'0 0.0
2018-Jun-10 02:00N 29°51' W 093°58'0 0.0
2018-Jun-10 01:30N 29°51' W 093°58'0 0.0
2018-Jun-10 01:00N 29°51' W 093°58'0 0.0
2018-Jun-10 00:30N 29°51' W 093°58'0 0.0
2018-Jun-10 00:00N 29°51' W 093°58'0 0.0
2018-Jun-09 23:30N 29°51' W 093°58'0 0.0
2018-Jun-09 23:00N 29°51' W 093°58'0 0.0
2018-Jun-09 22:30N 29°51' W 093°58'0 0.0
2018-Jun-09 22:00N 29°51' W 093°58'0 0.0
2018-Jun-09 21:30N 29°51' W 093°58'0 0.0
2018-Jun-09 21:00N 29°51' W 093°58'0 0.0
2018-Jun-09 20:30N 29°51' W 093°58'0 0.0
2018-Jun-09 20:00N 29°51' W 093°58'0 0.0
2018-Jun-09 19:30N 29°51' W 093°58'0 0.0
2018-Jun-09 19:00N 29°51' W 093°58'0 0.3
2018-Jun-09 18:30N 29°51' W 093°58'1 2.6
2018-Jun-09 18:00N 29°50' W 093°58'1 2.2
2018-Jun-09 17:30N 29°49' W 093°59'0 0.0
2018-Jun-09 17:00N 29°49' W 093°59'0 0.0
2018-Jun-09 16:30N 29°49' W 093°59'0 0.0
2018-Jun-09 16:00N 29°49' W 093°59'0 0.0
2018-Jun-09 15:30N 29°49' W 093°59'0 0.0
2018-Jun-09 14:30N 29°49' W 093°59'0 0.0
2018-Jun-09 14:00N 29°49' W 093°59'0 0.0
2018-Jun-09 13:30N 29°49' W 093°59'0 0.0
2018-Jun-09 13:00N 29°49' W 093°59'0 0.0
2018-Jun-09 12:30N 29°49' W 093°59'0 0.0
2018-Jun-09 12:00N 29°49' W 093°59'0 0.1
2018-Jun-09 11:30N 29°49' W 093°59'0 0.2
2018-Jun-09 11:00N 29°49' W 093°59'1 1.2
2018-Jun-09 10:30N 29°49' W 093°58'4 7.2
2018-Jun-09 10:00N 29°52' W 093°56'4 7.2
2018-Jun-09 09:30N 29°55' W 093°53'3 6.6
2018-Jun-09 09:00N 29°58' W 093°51'0 0.2
2018-Jun-09 08:30N 29°58' W 093°52'0 0.0
2018-Jun-09 07:59N 29°58' W 093°52'0 0.0
2018-Jun-09 07:30N 29°58' W 093°52'0 0.0
2018-Jun-09 07:00N 29°58' W 093°52'0 0.0
2018-Jun-09 06:28N 29°58' W 093°52'0 0.0
2018-Jun-09 05:59N 29°58' W 093°52'0 0.0
2018-Jun-09 05:30N 29°58' W 093°52'0 0.0
2018-Jun-09 05:00N 29°58' W 093°52'0 0.1
2018-Jun-09 04:30N 29°58' W 093°52'0 0.0
2018-Jun-09 04:00N 29°58' W 093°52'0 0.0
2018-Jun-09 03:30N 29°58' W 093°52'0 0.0
2018-Jun-09 03:00N 29°58' W 093°52'0 0.0
2018-Jun-09 02:30N 29°58' W 093°52'0 0.0
2018-Jun-09 02:00N 29°58' W 093°52'0 0.0
2018-Jun-09 01:30N 29°58' W 093°52'0 0.0
2018-Jun-09 01:00N 29°58' W 093°52'1 2.8
2018-Jun-09 00:30N 29°59' W 093°53'3 6.9
2018-Jun-09 00:00N 29°60' W 093°57'2 3.4
2018-Jun-08 23:30N 30°01' W 093°59'0 0.1
2018-Jun-08 23:00N 30°00' W 093°59'0 0.0
2018-Jun-08 22:30N 30°00' W 093°59'0 0.0
2018-Jun-08 22:00N 30°00' W 093°59'0 0.0
2018-Jun-08 21:30N 30°00' W 093°59'0 0.0
2018-Jun-08 21:00N 30°00' W 093°59'0 0.0
2018-Jun-08 20:30N 30°00' W 093°59'0 0.0
2018-Jun-08 20:00N 30°00' W 093°59'0 0.0
2018-Jun-08 19:30N 30°00' W 093°59'0 0.0
2018-Jun-08 19:00N 30°00' W 093°59'0 0.0
2018-Jun-08 18:30N 30°00' W 093°59'0 0.0
2018-Jun-08 18:00N 30°00' W 093°59'0 0.0
2018-Jun-08 17:30N 30°00' W 093°59'0 0.0
2018-Jun-08 17:00N 30°00' W 093°59'0 0.0
2018-Jun-08 16:30N 30°00' W 093°59'0 0.0
2018-Jun-08 16:00N 30°00' W 093°59'0 0.0
2018-Jun-08 15:29N 30°00' W 093°59'0 0.0
2018-Jun-08 15:00N 30°00' W 093°59'0 0.0
2018-Jun-08 14:29N 30°00' W 093°59'0 0.0
2018-Jun-08 14:00N 30°00' W 093°59'0 0.0
2018-Jun-08 13:30N 30°00' W 093°59'0 0.0
2018-Jun-08 13:00N 30°00' W 093°59'0 0.0
2018-Jun-08 12:30N 30°00' W 093°59'0 0.0
2018-Jun-08 12:00N 30°00' W 093°59'0 0.0
2018-Jun-08 11:30N 30°00' W 093°59'0 0.0
2018-Jun-08 11:00N 30°00' W 093°59'0 0.0
2018-Jun-08 10:30N 30°00' W 093°59'0 0.0
2018-Jun-08 10:00N 30°00' W 093°59'0 0.0
2018-Jun-08 09:30N 30°00' W 093°59'0 0.0
2018-Jun-08 09:00N 30°00' W 093°59'0 0.0
2018-Jun-08 08:30N 30°00' W 093°59'0 0.0
2018-Jun-08 08:00N 30°00' W 093°59'0 0.0
2018-Jun-08 07:30N 30°00' W 093°59'0 0.0
2018-Jun-08 07:00N 30°00' W 093°59'0 0.0
2018-Jun-08 06:30N 30°00' W 093°59'0 0.0
2018-Jun-08 06:00N 30°00' W 093°59'0 0.0
2018-Jun-08 05:30N 30°00' W 093°59'0 0.0
2018-Jun-08 05:00N 30°00' W 093°59'0 0.0
2018-Jun-08 04:30N 30°00' W 093°59'0 0.0
2018-Jun-08 04:00N 30°00' W 093°59'0 0.0
2018-Jun-08 03:30N 30°00' W 093°59'0 0.1
2018-Jun-08 03:00N 30°01' W 093°59'0 0.0
2018-Jun-08 02:30N 30°01' W 093°59'0 0.0
2018-Jun-08 02:00N 30°01' W 093°59'0 0.0
2018-Jun-08 01:30N 30°01' W 093°59'0 0.0
2018-Jun-08 01:00N 30°01' W 093°59'0 0.0
2018-Jun-08 00:30N 30°01' W 093°59'0 0.0
2018-Jun-08 00:00N 30°01' W 093°59'0 0.0
2018-Jun-07 23:30N 30°01' W 093°59'0 0.0
2018-Jun-07 23:00N 30°01' W 093°59'0 0.0
2018-Jun-07 22:30N 30°01' W 093°59'0 0.0
2018-Jun-07 22:00N 30°01' W 093°59'0 0.0
2018-Jun-07 21:30N 30°01' W 093°59'0 0.0
2018-Jun-07 21:00N 30°01' W 093°59'0 0.0
2018-Jun-07 20:30N 30°01' W 093°59'0 0.0
2018-Jun-07 20:00N 30°01' W 093°59'0 0.9
2018-Jun-07 19:30N 30°01' W 093°58'3 5.9
2018-Jun-07 18:59N 29°59' W 093°55'3 6.5
2018-Jun-07 18:30N 29°59' W 093°52'1 1.2
2018-Jun-07 18:00N 29°58' W 093°51'0 0.0
2018-Jun-07 17:30N 29°58' W 093°51'0 0.0
2018-Jun-07 17:00N 29°58' W 093°51'0 0.0
2018-Jun-07 16:30N 29°58' W 093°51'0 0.0
2018-Jun-07 16:00N 29°58' W 093°51'0 0.0
2018-Jun-07 15:29N 29°58' W 093°51'0 0.0
2018-Jun-07 15:00N 29°58' W 093°51'0 0.0
2018-Jun-07 14:30N 29°58' W 093°51'0 0.0
2018-Jun-07 14:00N 29°58' W 093°51'0 0.0
2018-Jun-07 13:30N 29°58' W 093°51'0 0.0
2018-Jun-07 13:00N 29°58' W 093°51'0 0.0
2018-Jun-07 12:30N 29°58' W 093°51'0 0.0
2018-Jun-07 12:00N 29°58' W 093°51'0 0.0
2018-Jun-07 11:30N 29°58' W 093°51'0 0.0
2018-Jun-07 11:00N 29°58' W 093°51'0 0.0
2018-Jun-07 10:30N 29°58' W 093°51'0 0.0
2018-Jun-07 10:00N 29°58' W 093°51'0 0.0
2018-Jun-07 09:30N 29°58' W 093°51'0 0.0
2018-Jun-07 09:00N 29°58' W 093°51'0 0.0
2018-Jun-07 08:30N 29°58' W 093°51'0 0.0
2018-Jun-07 08:00N 29°58' W 093°51'0 0.0
2018-Jun-07 07:30N 29°58' W 093°51'0 0.0
2018-Jun-07 07:00N 29°58' W 093°51'0 0.0
2018-Jun-07 06:30N 29°58' W 093°51'0 0.0
2018-Jun-07 06:00N 29°58' W 093°51'0 0.0
2018-Jun-07 05:30N 29°58' W 093°51'0 0.0
2018-Jun-07 05:00N 29°58' W 093°51'0 0.0
2018-Jun-07 04:30N 29°58' W 093°51'0 0.0
2018-Jun-07 04:00N 29°58' W 093°51'0 0.0
2018-Jun-07 03:30N 29°58' W 093°51'0 0.0
2018-Jun-07 03:00N 29°58' W 093°51'0 0.0
2018-Jun-07 02:30N 29°58' W 093°51'0 0.0
2018-Jun-07 02:00N 29°58' W 093°51'0 0.0
2018-Jun-07 01:30N 29°58' W 093°51'0 0.0
2018-Jun-07 01:00N 29°58' W 093°51'0 0.0
2018-Jun-07 00:30N 29°58' W 093°51'0 0.0
2018-Jun-07 00:00N 29°58' W 093°51'0 0.0
2018-Jun-06 23:30N 29°58' W 093°51'0 0.0
2018-Jun-06 23:00N 29°58' W 093°51'1 1.1
2018-Jun-06 22:30N 29°58' W 093°52'0 0.0
2018-Jun-06 21:59N 29°58' W 093°52'0 0.0
2018-Jun-06 21:30N 29°58' W 093°52'0 0.0
2018-Jun-06 21:00N 29°58' W 093°52'0 0.0
2018-Jun-06 20:30N 29°58' W 093°52'0 0.0
2018-Jun-06 20:00N 29°58' W 093°52'0 0.0
2018-Jun-06 19:30N 29°58' W 093°52'3 5.1
2018-Jun-06 19:00N 29°59' W 093°54'1 1.1
2018-Jun-06 18:30N 29°60' W 093°55'0 0.0
2018-Jun-06 18:00N 29°60' W 093°55'0 0.0
2018-Jun-06 17:30N 29°60' W 093°55'0 0.0
2018-Jun-06 17:00N 29°60' W 093°55'0 0.0
2018-Jun-06 16:29N 29°60' W 093°55'0 0.0
2018-Jun-06 16:00N 29°60' W 093°55'0 0.0
2018-Jun-06 15:30N 29°60' W 093°55'0 0.0
2018-Jun-06 15:00N 29°60' W 093°55'0 0.0
2018-Jun-06 14:30N 29°60' W 093°55'0 0.0
2018-Jun-06 14:00N 29°60' W 093°55'0 0.0
2018-Jun-06 13:30N 29°60' W 093°55'0 0.0
2018-Jun-06 13:00N 29°60' W 093°55'0 0.0
2018-Jun-06 12:30N 29°60' W 093°55'0 0.0
2018-Jun-06 12:00N 29°60' W 093°55'0 0.1
2018-Jun-06 11:30N 29°60' W 093°55'0 0.1
2018-Jun-06 11:00N 29°60' W 093°55'0 0.0
2018-Jun-06 10:30N 29°60' W 093°55'0 0.0
2018-Jun-06 10:00N 29°60' W 093°55'0 0.0
2018-Jun-06 09:30N 29°60' W 093°55'0 0.0
2018-Jun-06 09:00N 29°60' W 093°55'0 0.0
2018-Jun-06 08:30N 29°60' W 093°55'0 0.0
2018-Jun-06 08:00N 29°60' W 093°55'0 0.0
2018-Jun-06 07:30N 29°60' W 093°55'0 0.0
2018-Jun-06 07:00N 29°60' W 093°55'0 0.0
2018-Jun-06 06:30N 29°60' W 093°55'0 0.0
2018-Jun-06 06:00N 29°60' W 093°55'0 0.0
2018-Jun-06 05:30N 29°60' W 093°55'0 0.0
2018-Jun-06 05:00N 29°60' W 093°55'0 0.0
2018-Jun-06 04:30N 29°60' W 093°55'0 0.0
2018-Jun-06 04:00N 29°60' W 093°55'0 0.0
2018-Jun-06 03:30N 29°60' W 093°55'0 0.0
2018-Jun-06 03:00N 29°60' W 093°55'0 0.0
2018-Jun-06 02:30N 29°60' W 093°55'0 0.0
2018-Jun-06 02:00N 29°60' W 093°55'0 0.0
2018-Jun-06 01:30N 29°60' W 093°55'0 0.0
2018-Jun-06 01:00N 29°60' W 093°55'0 0.0
2018-Jun-06 00:30N 29°60' W 093°55'1 2.5
2018-Jun-06 00:00N 29°59' W 093°53'3 5.5
2018-Jun-05 23:30N 29°57' W 093°52'4 7.7
2018-Jun-05 23:00N 29°53' W 093°55'4 7.6
2018-Jun-05 22:30N 29°50' W 093°57'1 2.2
2018-Jun-05 22:00N 29°51' W 093°58'0 0.0
2018-Jun-05 21:30N 29°51' W 093°58'0 0.0
2018-Jun-05 21:00N 29°51' W 093°58'0 0.0
2018-Jun-05 20:30N 29°51' W 093°58'0 0.0
2018-Jun-05 20:00N 29°51' W 093°58'0 0.0
2018-Jun-05 19:30N 29°51' W 093°58'0 0.0
2018-Jun-05 19:00N 29°51' W 093°58'0 0.0
2018-Jun-05 18:30N 29°51' W 093°58'0 0.0
2018-Jun-05 18:00N 29°51' W 093°58'0 0.0
2018-Jun-05 17:29N 29°51' W 093°58'0 0.0
2018-Jun-05 17:00N 29°51' W 093°58'0 0.0
2018-Jun-05 16:29N 29°51' W 093°58'0 0.0
2018-Jun-05 16:00N 29°51' W 093°58'0 0.0
2018-Jun-05 15:30N 29°51' W 093°58'0 0.0
2018-Jun-05 15:00N 29°51' W 093°58'0 0.0
2018-Jun-05 14:30N 29°51' W 093°58'0 0.0
2018-Jun-05 14:00N 29°51' W 093°58'0 0.0
2018-Jun-05 13:30N 29°51' W 093°58'0 0.0
2018-Jun-05 13:00N 29°51' W 093°58'0 0.0
2018-Jun-05 12:30N 29°51' W 093°58'0 0.0
2018-Jun-05 11:58N 29°51' W 093°58'0 0.0
2018-Jun-05 11:30N 29°51' W 093°58'0 0.0
2018-Jun-05 11:00N 29°51' W 093°58'0 0.0
2018-Jun-05 10:30N 29°51' W 093°58'0 0.0
2018-Jun-05 10:00N 29°51' W 093°58'0 0.0
2018-Jun-05 09:30N 29°51' W 093°58'0 0.0
2018-Jun-05 09:00N 29°51' W 093°58'0 0.5
2018-Jun-05 08:30N 29°51' W 093°58'1 3.0
2018-Jun-05 08:00N 29°49' W 093°58'0 0.2
2018-Jun-05 07:30N 29°49' W 093°58'0 0.0
2018-Jun-05 07:00N 29°49' W 093°58'0 0.0
2018-Jun-05 06:30N 29°49' W 093°58'0 0.0
2018-Jun-05 06:00N 29°49' W 093°58'0 0.0
2018-Jun-05 05:28N 29°49' W 093°58'0 0.0
2018-Jun-05 05:00N 29°49' W 093°58'0 0.0
2018-Jun-05 04:30N 29°49' W 093°58'0 0.0
2018-Jun-05 03:59N 29°49' W 093°58'0 0.0
2018-Jun-05 03:30N 29°49' W 093°58'0 0.0
2018-Jun-05 02:59N 29°49' W 093°58'0 0.0
2018-Jun-05 02:30N 29°49' W 093°58'1 1.0
2018-Jun-05 02:00N 29°49' W 093°58'1 2.3
2018-Jun-05 01:30N 29°51' W 093°58'0 0.2
2018-Jun-05 01:00N 29°51' W 093°58'0 0.7
2018-Jun-05 00:30N 29°51' W 093°58'0 0.0
2018-Jun-05 00:01N 29°51' W 093°58'0 0.0
2018-Jun-04 23:30N 29°51' W 093°58'0 0.0
2018-Jun-04 23:00N 29°51' W 093°58'0 0.0
2018-Jun-04 22:30N 29°51' W 093°58'0 0.0
2018-Jun-04 22:00N 29°51' W 093°58'0 0.0
2018-Jun-04 21:30N 29°51' W 093°58'0 0.0
2018-Jun-04 21:00N 29°51' W 093°58'0 0.0
2018-Jun-04 20:30N 29°51' W 093°58'0 0.0
2018-Jun-04 20:00N 29°51' W 093°58'0 0.0
2018-Jun-04 19:30N 29°51' W 093°58'0 0.0
2018-Jun-04 19:00N 29°51' W 093°58'0 0.1
2018-Jun-04 18:30N 29°51' W 093°58'0 0.0
2018-Jun-04 18:00N 29°51' W 093°58'0 0.0
2018-Jun-04 17:30N 29°51' W 093°58'0 0.0
2018-Jun-04 17:00N 29°51' W 093°58'0 0.0
2018-Jun-04 16:30N 29°51' W 093°58'0 0.0
2018-Jun-04 16:00N 29°51' W 093°58'0 0.0
2018-Jun-04 15:30N 29°51' W 093°58'0 0.0
2018-Jun-04 15:00N 29°51' W 093°58'0 0.0
2018-Jun-04 14:30N 29°51' W 093°58'0 0.0
2018-Jun-04 14:00N 29°51' W 093°58'0 0.0
2018-Jun-04 13:30N 29°51' W 093°58'0 0.0
2018-Jun-04 13:00N 29°51' W 093°58'0 0.0
2018-Jun-04 12:30N 29°51' W 093°58'0 0.0
2018-Jun-04 12:00N 29°51' W 093°58'0 0.0
2018-Jun-04 11:30N 29°51' W 093°58'0 0.0
2018-Jun-04 11:00N 29°51' W 093°58'0 0.0
2018-Jun-04 10:29N 29°51' W 093°58'0 0.0
2018-Jun-04 10:00N 29°51' W 093°58'0 0.0
2018-Jun-04 09:30N 29°51' W 093°58'0 0.0
2018-Jun-04 09:00N 29°51' W 093°58'0 0.0
2018-Jun-04 08:30N 29°51' W 093°58'0 0.0
2018-Jun-04 08:00N 29°51' W 093°58'0 0.0
2018-Jun-04 07:30N 29°51' W 093°58'0 0.0
2018-Jun-04 07:00N 29°51' W 093°58'0 0.0
2018-Jun-04 06:30N 29°51' W 093°58'0 0.0
2018-Jun-04 06:00N 29°51' W 093°58'0 0.0
2018-Jun-04 05:30N 29°51' W 093°58'0 0.0
2018-Jun-04 05:00N 29°51' W 093°58'0 0.0
2018-Jun-04 04:30N 29°51' W 093°58'0 0.0
2018-Jun-04 03:59N 29°51' W 093°58'0 0.0
2018-Jun-04 03:30N 29°51' W 093°58'0 0.0
2018-Jun-04 03:00N 29°51' W 093°58'0 0.0
2018-Jun-04 02:30N 29°51' W 093°58'0 0.0
2018-Jun-04 02:00N 29°51' W 093°58'1 2.6
2018-Jun-04 01:30N 29°50' W 093°58'1 2.4
2018-Jun-04 01:00N 29°49' W 093°59'3 5.1
2018-Jun-04 00:30N 29°47' W 094°01'3 5.9
2018-Jun-04 00:00N 29°46' W 094°04'3 6.1
2018-Jun-03 23:30N 29°44' W 094°06'3 6.0
2018-Jun-03 23:00N 29°42' W 094°09'3 5.6
2018-Jun-03 22:30N 29°41' W 094°12'11 5.2
2018-Jun-03 20:18N 29°36' W 094°24'1 3.8
2018-Jun-03 20:00N 29°35' W 094°25'20 5.6
2018-Jun-03 16:24N 29°24' W 094°45'2 6.1
2018-Jun-03 16:00N 29°23' W 094°47'  

Dump ship's entire track history